sensor_id;sensor_type;location;lat;lon;timestamp;P1;durP1;ratioP1;P2;durP2;ratioP2
22378;SDS011;11357;49.990;7.370;2023-12-07T00:01:25;41.03;;;19.77;;
22378;SDS011;11357;49.990;7.370;2023-12-07T00:03:51;44.90;;;19.17;;
22378;SDS011;11357;49.990;7.370;2023-12-07T00:06:17;41.40;;;21.20;;
22378;SDS011;11357;49.990;7.370;2023-12-07T00:08:42;49.10;;;21.87;;
22378;SDS011;11357;49.990;7.370;2023-12-07T00:11:08;54.03;;;21.60;;
22378;SDS011;11357;49.990;7.370;2023-12-07T00:13:34;50.60;;;20.50;;
22378;SDS011;11357;49.990;7.370;2023-12-07T00:15:59;50.57;;;20.93;;
22378;SDS011;11357;49.990;7.370;2023-12-07T00:18:25;49.47;;;21.47;;
22378;SDS011;11357;49.990;7.370;2023-12-07T00:20:50;38.37;;;19.47;;
22378;SDS011;11357;49.990;7.370;2023-12-07T00:23:16;50.93;;;21.57;;
22378;SDS011;11357;49.990;7.370;2023-12-07T00:25:42;44.63;;;20.53;;
22378;SDS011;11357;49.990;7.370;2023-12-07T00:28:07;50.93;;;20.83;;
22378;SDS011;11357;49.990;7.370;2023-12-07T00:30:33;43.07;;;20.03;;
22378;SDS011;11357;49.990;7.370;2023-12-07T00:32:59;44.33;;;19.43;;
22378;SDS011;11357;49.990;7.370;2023-12-07T00:35:25;43.70;;;21.70;;
22378;SDS011;11357;49.990;7.370;2023-12-07T00:37:54;48.53;;;22.37;;
22378;SDS011;11357;49.990;7.370;2023-12-07T00:40:20;49.47;;;20.23;;
22378;SDS011;11357;49.990;7.370;2023-12-07T00:42:47;42.53;;;19.97;;
22378;SDS011;11357;49.990;7.370;2023-12-07T00:45:13;52.07;;;20.87;;
22378;SDS011;11357;49.990;7.370;2023-12-07T00:47:39;49.63;;;22.23;;
22378;SDS011;11357;49.990;7.370;2023-12-07T00:50:05;41.70;;;21.00;;
22378;SDS011;11357;49.990;7.370;2023-12-07T00:52:31;46.57;;;21.87;;
22378;SDS011;11357;49.990;7.370;2023-12-07T00:54:57;53.63;;;21.63;;
22378;SDS011;11357;49.990;7.370;2023-12-07T00:57:22;50.13;;;20.77;;
22378;SDS011;11357;49.990;7.370;2023-12-07T00:59:48;49.60;;;22.20;;
22378;SDS011;11357;49.990;7.370;2023-12-07T01:02:14;44.63;;;21.80;;
22378;SDS011;11357;49.990;7.370;2023-12-07T01:04:39;50.53;;;22.33;;
22378;SDS011;11357;49.990;7.370;2023-12-07T01:07:05;49.67;;;22.77;;
22378;SDS011;11357;49.990;7.370;2023-12-07T01:09:31;64.77;;;24.67;;
22378;SDS011;11357;49.990;7.370;2023-12-07T01:11:56;52.63;;;22.60;;
22378;SDS011;11357;49.990;7.370;2023-12-07T01:14:23;54.20;;;21.47;;
22378;SDS011;11357;49.990;7.370;2023-12-07T01:16:49;58.77;;;24.43;;
22378;SDS011;11357;49.990;7.370;2023-12-07T01:19:14;71.30;;;24.77;;
22378;SDS011;11357;49.990;7.370;2023-12-07T01:21:43;51.90;;;22.20;;
22378;SDS011;11357;49.990;7.370;2023-12-07T01:24:09;60.77;;;25.10;;
22378;SDS011;11357;49.990;7.370;2023-12-07T01:26:34;55.13;;;22.50;;
22378;SDS011;11357;49.990;7.370;2023-12-07T01:29:00;60.17;;;23.63;;
22378;SDS011;11357;49.990;7.370;2023-12-07T01:31:26;63.47;;;23.60;;
22378;SDS011;11357;49.990;7.370;2023-12-07T01:33:52;52.13;;;22.90;;
22378;SDS011;11357;49.990;7.370;2023-12-07T01:36:17;59.17;;;23.90;;
22378;SDS011;11357;49.990;7.370;2023-12-07T01:38:43;61.13;;;24.83;;
22378;SDS011;11357;49.990;7.370;2023-12-07T01:41:09;59.07;;;22.53;;
22378;SDS011;11357;49.990;7.370;2023-12-07T01:43:35;55.07;;;24.17;;
22378;SDS011;11357;49.990;7.370;2023-12-07T01:46:00;61.57;;;25.63;;
22378;SDS011;11357;49.990;7.370;2023-12-07T01:48:27;62.80;;;23.90;;
22378;SDS011;11357;49.990;7.370;2023-12-07T01:50:55;60.00;;;22.83;;
22378;SDS011;11357;49.990;7.370;2023-12-07T01:53:23;58.87;;;23.90;;
22378;SDS011;11357;49.990;7.370;2023-12-07T01:55:50;55.67;;;22.83;;
22378;SDS011;11357;49.990;7.370;2023-12-07T01:58:17;55.27;;;22.93;;
22378;SDS011;11357;49.990;7.370;2023-12-07T02:00:44;57.03;;;23.57;;
22378;SDS011;11357;49.990;7.370;2023-12-07T02:03:10;60.93;;;23.07;;
22378;SDS011;11357;49.990;7.370;2023-12-07T02:05:37;51.30;;;22.03;;
22378;SDS011;11357;49.990;7.370;2023-12-07T02:08:07;48.33;;;21.90;;
22378;SDS011;11357;49.990;7.370;2023-12-07T02:10:33;47.63;;;21.23;;
22378;SDS011;11357;49.990;7.370;2023-12-07T02:12:58;51.50;;;21.07;;
22378;SDS011;11357;49.990;7.370;2023-12-07T02:15:24;50.23;;;21.93;;
22378;SDS011;11357;49.990;7.370;2023-12-07T02:20:39;47.60;;;21.03;;
22378;SDS011;11357;49.990;7.370;2023-12-07T02:23:14;50.70;;;21.30;;
22378;SDS011;11357;49.990;7.370;2023-12-07T02:25:51;45.57;;;19.50;;
22378;SDS011;11357;49.990;7.370;2023-12-07T02:28:18;45.00;;;20.00;;
22378;SDS011;11357;49.990;7.370;2023-12-07T02:30:44;46.53;;;20.37;;
22378;SDS011;11357;49.990;7.370;2023-12-07T02:33:10;59.43;;;21.53;;
22378;SDS011;11357;49.990;7.370;2023-12-07T02:35:38;46.17;;;21.60;;
22378;SDS011;11357;49.990;7.370;2023-12-07T02:38:05;49.77;;;21.03;;
22378;SDS011;11357;49.990;7.370;2023-12-07T02:40:32;57.80;;;23.40;;
22378;SDS011;11357;49.990;7.370;2023-12-07T02:42:59;61.60;;;24.93;;
22378;SDS011;11357;49.990;7.370;2023-12-07T02:45:26;59.53;;;23.77;;
22378;SDS011;11357;49.990;7.370;2023-12-07T02:47:52;62.67;;;23.30;;
22378;SDS011;11357;49.990;7.370;2023-12-07T02:50:18;53.17;;;23.00;;
22378;SDS011;11357;49.990;7.370;2023-12-07T02:52:44;52.57;;;22.40;;
22378;SDS011;11357;49.990;7.370;2023-12-07T02:55:09;59.63;;;24.23;;
22378;SDS011;11357;49.990;7.370;2023-12-07T02:57:35;47.97;;;22.90;;
22378;SDS011;11357;49.990;7.370;2023-12-07T03:00:02;52.17;;;23.90;;
22378;SDS011;11357;49.990;7.370;2023-12-07T03:02:32;61.33;;;24.70;;
22378;SDS011;11357;49.990;7.370;2023-12-07T03:04:59;76.30;;;26.30;;
22378;SDS011;11357;49.990;7.370;2023-12-07T03:07:24;61.27;;;24.50;;
22378;SDS011;11357;49.990;7.370;2023-12-07T03:09:50;66.70;;;24.73;;
22378;SDS011;11357;49.990;7.370;2023-12-07T03:12:15;75.47;;;26.33;;
22378;SDS011;11357;49.990;7.370;2023-12-07T03:14:41;87.37;;;26.20;;
22378;SDS011;11357;49.990;7.370;2023-12-07T03:17:07;63.93;;;26.13;;
22378;SDS011;11357;49.990;7.370;2023-12-07T03:19:32;69.33;;;26.07;;
22378;SDS011;11357;49.990;7.370;2023-12-07T03:21:58;58.60;;;23.53;;
22378;SDS011;11357;49.990;7.370;2023-12-07T03:24:23;59.17;;;24.10;;
22378;SDS011;11357;49.990;7.370;2023-12-07T03:26:49;58.27;;;24.77;;
22378;SDS011;11357;49.990;7.370;2023-12-07T03:29:15;55.77;;;24.10;;
22378;SDS011;11357;49.990;7.370;2023-12-07T03:31:40;55.43;;;22.97;;
22378;SDS011;11357;49.990;7.370;2023-12-07T03:34:06;60.07;;;23.03;;
22378;SDS011;11357;49.990;7.370;2023-12-07T03:36:32;55.17;;;22.53;;
22378;SDS011;11357;49.990;7.370;2023-12-07T03:38:57;46.50;;;22.00;;
22378;SDS011;11357;49.990;7.370;2023-12-07T03:41:23;46.27;;;22.40;;
22378;SDS011;11357;49.990;7.370;2023-12-07T03:43:48;64.23;;;23.77;;
22378;SDS011;11357;49.990;7.370;2023-12-07T03:46:14;47.27;;;22.00;;
22378;SDS011;11357;49.990;7.370;2023-12-07T03:48:40;39.43;;;19.83;;
22378;SDS011;11357;49.990;7.370;2023-12-07T03:51:05;49.67;;;21.47;;
22378;SDS011;11357;49.990;7.370;2023-12-07T03:53:31;44.97;;;21.20;;
22378;SDS011;11357;49.990;7.370;2023-12-07T03:55:57;38.80;;;20.03;;
22378;SDS011;11357;49.990;7.370;2023-12-07T03:58:22;48.93;;;19.70;;
22378;SDS011;11357;49.990;7.370;2023-12-07T04:00:48;34.00;;;17.97;;
22378;SDS011;11357;49.990;7.370;2023-12-07T04:03:14;40.90;;;18.30;;
22378;SDS011;11357;49.990;7.370;2023-12-07T04:05:39;33.93;;;17.23;;
22378;SDS011;11357;49.990;7.370;2023-12-07T04:08:05;38.57;;;18.47;;
22378;SDS011;11357;49.990;7.370;2023-12-07T04:10:31;32.20;;;16.37;;
22378;SDS011;11357;49.990;7.370;2023-12-07T04:12:56;33.53;;;16.93;;
22378;SDS011;11357;49.990;7.370;2023-12-07T04:15:22;30.03;;;15.43;;
22378;SDS011;11357;49.990;7.370;2023-12-07T04:17:48;29.83;;;15.73;;
22378;SDS011;11357;49.990;7.370;2023-12-07T04:20:14;31.07;;;15.93;;
22378;SDS011;11357;49.990;7.370;2023-12-07T04:22:40;28.63;;;14.57;;
22378;SDS011;11357;49.990;7.370;2023-12-07T04:25:06;28.23;;;16.27;;
22378;SDS011;11357;49.990;7.370;2023-12-07T04:27:35;32.50;;;16.20;;
22378;SDS011;11357;49.990;7.370;2023-12-07T04:30:01;33.13;;;17.10;;
22378;SDS011;11357;49.990;7.370;2023-12-07T04:32:26;31.07;;;16.53;;
22378;SDS011;11357;49.990;7.370;2023-12-07T04:34:52;31.03;;;15.97;;
22378;SDS011;11357;49.990;7.370;2023-12-07T04:37:18;27.13;;;15.07;;
22378;SDS011;11357;49.990;7.370;2023-12-07T04:39:44;24.90;;;14.27;;
22378;SDS011;11357;49.990;7.370;2023-12-07T04:42:09;22.60;;;13.37;;
22378;SDS011;11357;49.990;7.370;2023-12-07T04:44:35;24.53;;;13.83;;
22378;SDS011;11357;49.990;7.370;2023-12-07T04:47:01;27.57;;;14.03;;
22378;SDS011;11357;49.990;7.370;2023-12-07T04:49:26;22.50;;;12.83;;
22378;SDS011;11357;49.990;7.370;2023-12-07T04:51:52;24.60;;;12.77;;
22378;SDS011;11357;49.990;7.370;2023-12-07T04:54:18;22.57;;;13.03;;
22378;SDS011;11357;49.990;7.370;2023-12-07T04:56:44;22.20;;;12.97;;
22378;SDS011;11357;49.990;7.370;2023-12-07T04:59:10;29.60;;;13.33;;
22378;SDS011;11357;49.990;7.370;2023-12-07T05:01:36;20.40;;;13.40;;
22378;SDS011;11357;49.990;7.370;2023-12-07T05:04:02;24.83;;;13.97;;
22378;SDS011;11357;49.990;7.370;2023-12-07T05:06:29;27.50;;;14.27;;
22378;SDS011;11357;49.990;7.370;2023-12-07T05:08:55;26.37;;;14.33;;
22378;SDS011;11357;49.990;7.370;2023-12-07T05:11:21;30.20;;;14.53;;
22378;SDS011;11357;49.990;7.370;2023-12-07T05:13:46;29.47;;;15.40;;
22378;SDS011;11357;49.990;7.370;2023-12-07T05:16:13;26.70;;;13.87;;
22378;SDS011;11357;49.990;7.370;2023-12-07T05:18:38;30.27;;;15.63;;
22378;SDS011;11357;49.990;7.370;2023-12-07T05:21:04;28.80;;;15.27;;
22378;SDS011;11357;49.990;7.370;2023-12-07T05:23:30;30.67;;;15.63;;
22378;SDS011;11357;49.990;7.370;2023-12-07T05:25:56;25.40;;;14.67;;
22378;SDS011;11357;49.990;7.370;2023-12-07T05:28:22;26.73;;;13.77;;
22378;SDS011;11357;49.990;7.370;2023-12-07T05:30:47;32.13;;;15.40;;
22378;SDS011;11357;49.990;7.370;2023-12-07T05:33:13;30.33;;;15.07;;
22378;SDS011;11357;49.990;7.370;2023-12-07T05:35:40;33.17;;;16.57;;
22378;SDS011;11357;49.990;7.370;2023-12-07T05:38:05;36.03;;;19.13;;
22378;SDS011;11357;49.990;7.370;2023-12-07T05:40:31;38.67;;;17.07;;
22378;SDS011;11357;49.990;7.370;2023-12-07T05:42:57;26.93;;;15.83;;
22378;SDS011;11357;49.990;7.370;2023-12-07T05:47:58;30.53;;;16.70;;
22378;SDS011;11357;49.990;7.370;2023-12-07T05:50:23;35.93;;;18.70;;
22378;SDS011;11357;49.990;7.370;2023-12-07T05:52:49;32.63;;;17.40;;
22378;SDS011;11357;49.990;7.370;2023-12-07T05:55:15;29.97;;;16.03;;
22378;SDS011;11357;49.990;7.370;2023-12-07T05:57:40;35.53;;;16.27;;
22378;SDS011;11357;49.990;7.370;2023-12-07T06:00:06;30.93;;;16.67;;
22378;SDS011;11357;49.990;7.370;2023-12-07T06:02:34;31.37;;;16.10;;
22378;SDS011;11357;49.990;7.370;2023-12-07T06:05:00;35.30;;;16.60;;
22378;SDS011;11357;49.990;7.370;2023-12-07T06:07:29;30.50;;;16.53;;
22378;SDS011;11357;49.990;7.370;2023-12-07T06:09:54;31.43;;;16.63;;
22378;SDS011;11357;49.990;7.370;2023-12-07T06:12:20;35.73;;;15.73;;
22378;SDS011;11357;49.990;7.370;2023-12-07T06:14:47;31.83;;;15.37;;
22378;SDS011;11357;49.990;7.370;2023-12-07T06:17:15;34.00;;;16.37;;
22378;SDS011;11357;49.990;7.370;2023-12-07T06:19:41;34.60;;;15.57;;
22378;SDS011;11357;49.990;7.370;2023-12-07T06:22:07;33.80;;;16.60;;
22378;SDS011;11357;49.990;7.370;2023-12-07T06:24:33;30.37;;;15.47;;
22378;SDS011;11357;49.990;7.370;2023-12-07T06:26:59;28.90;;;15.53;;
22378;SDS011;11357;49.990;7.370;2023-12-07T06:29:26;29.07;;;15.67;;
22378;SDS011;11357;49.990;7.370;2023-12-07T06:31:52;30.47;;;14.80;;
22378;SDS011;11357;49.990;7.370;2023-12-07T06:34:18;32.07;;;14.80;;
22378;SDS011;11357;49.990;7.370;2023-12-07T06:36:44;29.90;;;16.10;;
22378;SDS011;11357;49.990;7.370;2023-12-07T06:39:10;33.77;;;15.27;;
22378;SDS011;11357;49.990;7.370;2023-12-07T06:41:36;26.17;;;14.90;;
22378;SDS011;11357;49.990;7.370;2023-12-07T06:44:01;32.23;;;16.93;;
22378;SDS011;11357;49.990;7.370;2023-12-07T06:46:27;32.60;;;16.43;;
22378;SDS011;11357;49.990;7.370;2023-12-07T06:48:54;34.40;;;15.77;;
22378;SDS011;11357;49.990;7.370;2023-12-07T06:51:19;33.33;;;16.93;;
22378;SDS011;11357;49.990;7.370;2023-12-07T06:53:45;31.17;;;16.10;;
22378;SDS011;11357;49.990;7.370;2023-12-07T06:56:23;31.47;;;16.53;;
22378;SDS011;11357;49.990;7.370;2023-12-07T06:58:48;29.00;;;15.90;;
22378;SDS011;11357;49.990;7.370;2023-12-07T07:01:14;31.30;;;16.07;;
22378;SDS011;11357;49.990;7.370;2023-12-07T07:03:40;43.97;;;18.37;;
22378;SDS011;11357;49.990;7.370;2023-12-07T07:06:06;35.33;;;16.40;;
22378;SDS011;11357;49.990;7.370;2023-12-07T07:08:31;34.47;;;16.43;;
22378;SDS011;11357;49.990;7.370;2023-12-07T07:10:57;37.70;;;15.90;;
22378;SDS011;11357;49.990;7.370;2023-12-07T07:13:23;32.23;;;16.20;;
22378;SDS011;11357;49.990;7.370;2023-12-07T07:15:48;38.27;;;19.83;;
22378;SDS011;11357;49.990;7.370;2023-12-07T07:18:14;120.43;;;22.40;;
22378;SDS011;11357;49.990;7.370;2023-12-07T07:20:40;189.33;;;23.97;;
22378;SDS011;11357;49.990;7.370;2023-12-07T07:23:05;124.87;;;18.60;;
22378;SDS011;11357;49.990;7.370;2023-12-07T07:28:08;80.23;;;19.37;;
22378;SDS011;11357;49.990;7.370;2023-12-07T07:30:34;73.13;;;19.73;;
22378;SDS011;11357;49.990;7.370;2023-12-07T07:32:59;76.33;;;19.30;;
22378;SDS011;11357;49.990;7.370;2023-12-07T07:35:26;112.67;;;16.10;;
22378;SDS011;11357;49.990;7.370;2023-12-07T07:37:52;124.67;;;18.17;;
22378;SDS011;11357;49.990;7.370;2023-12-07T07:40:19;105.20;;;16.10;;
22378;SDS011;11357;49.990;7.370;2023-12-07T07:42:44;88.63;;;15.53;;
22378;SDS011;11357;49.990;7.370;2023-12-07T07:45:10;68.33;;;19.37;;
22378;SDS011;11357;49.990;7.370;2023-12-07T07:47:36;145.30;;;15.63;;
22378;SDS011;11357;49.990;7.370;2023-12-07T07:50:02;74.80;;;13.47;;
22378;SDS011;11357;49.990;7.370;2023-12-07T07:52:31;58.60;;;14.33;;
22378;SDS011;11357;49.990;7.370;2023-12-07T07:54:58;50.23;;;15.83;;
22378;SDS011;11357;49.990;7.370;2023-12-07T07:57:24;53.00;;;18.67;;
22378;SDS011;11357;49.990;7.370;2023-12-07T07:59:50;69.27;;;18.83;;
22378;SDS011;11357;49.990;7.370;2023-12-07T08:02:15;24.40;;;12.53;;
22378;SDS011;11357;49.990;7.370;2023-12-07T08:04:41;90.67;;;12.43;;
22378;SDS011;11357;49.990;7.370;2023-12-07T08:07:07;38.27;;;11.23;;
22378;SDS011;11357;49.990;7.370;2023-12-07T08:09:33;24.30;;;11.03;;
22378;SDS011;11357;49.990;7.370;2023-12-07T08:11:58;102.40;;;13.73;;
22378;SDS011;11357;49.990;7.370;2023-12-07T08:14:24;24.30;;;12.27;;
22378;SDS011;11357;49.990;7.370;2023-12-07T08:16:49;95.43;;;19.20;;
22378;SDS011;11357;49.990;7.370;2023-12-07T08:19:15;43.07;;;14.70;;
22378;SDS011;11357;49.990;7.370;2023-12-07T08:21:41;89.50;;;17.30;;
22378;SDS011;11357;49.990;7.370;2023-12-07T08:24:06;28.70;;;11.57;;
22378;SDS011;11357;49.990;7.370;2023-12-07T08:26:32;75.80;;;13.83;;
22378;SDS011;11357;49.990;7.370;2023-12-07T08:28:58;106.07;;;14.20;;
22378;SDS011;11357;49.990;7.370;2023-12-07T08:31:23;173.83;;;21.13;;
22378;SDS011;11357;49.990;7.370;2023-12-07T08:33:50;57.80;;;13.07;;
22378;SDS011;11357;49.990;7.370;2023-12-07T08:36:16;56.03;;;11.47;;
22378;SDS011;11357;49.990;7.370;2023-12-07T08:38:41;54.97;;;12.47;;
22378;SDS011;11357;49.990;7.370;2023-12-07T08:41:07;114.63;;;14.33;;
22378;SDS011;11357;49.990;7.370;2023-12-07T08:43:33;92.67;;;14.20;;
22378;SDS011;11357;49.990;7.370;2023-12-07T08:45:58;57.03;;;12.20;;
22378;SDS011;11357;49.990;7.370;2023-12-07T08:48:24;56.33;;;10.77;;
22378;SDS011;11357;49.990;7.370;2023-12-07T08:50:50;62.47;;;11.60;;
22378;SDS011;11357;49.990;7.370;2023-12-07T08:53:16;122.57;;;14.47;;
22378;SDS011;11357;49.990;7.370;2023-12-07T08:55:42;69.93;;;11.33;;
22378;SDS011;11357;49.990;7.370;2023-12-07T08:58:07;21.43;;;9.50;;
22378;SDS011;11357;49.990;7.370;2023-12-07T09:00:35;59.47;;;11.40;;
22378;SDS011;11357;49.990;7.370;2023-12-07T09:03:03;17.70;;;8.83;;
22378;SDS011;11357;49.990;7.370;2023-12-07T09:05:29;85.83;;;11.23;;
22378;SDS011;11357;49.990;7.370;2023-12-07T09:07:55;43.13;;;9.50;;
22378;SDS011;11357;49.990;7.370;2023-12-07T09:10:21;133.97;;;15.77;;
22378;SDS011;11357;49.990;7.370;2023-12-07T09:12:47;14.03;;;8.13;;
22378;SDS011;11357;49.990;7.370;2023-12-07T09:15:13;36.87;;;8.03;;
22378;SDS011;11357;49.990;7.370;2023-12-07T09:17:39;22.20;;;8.73;;
22378;SDS011;11357;49.990;7.370;2023-12-07T09:20:06;39.70;;;8.57;;
22378;SDS011;11357;49.990;7.370;2023-12-07T09:22:46;125.03;;;11.97;;
22378;SDS011;11357;49.990;7.370;2023-12-07T09:25:12;36.60;;;8.30;;
22378;SDS011;11357;49.990;7.370;2023-12-07T09:27:38;32.83;;;7.77;;
22378;SDS011;11357;49.990;7.370;2023-12-07T09:30:05;25.97;;;8.50;;
22378;SDS011;11357;49.990;7.370;2023-12-07T09:32:32;70.70;;;8.87;;
22378;SDS011;11357;49.990;7.370;2023-12-07T09:35:03;31.83;;;8.43;;
22378;SDS011;11357;49.990;7.370;2023-12-07T09:37:31;53.73;;;8.27;;
22378;SDS011;11357;49.990;7.370;2023-12-07T09:39:57;43.63;;;8.13;;
22378;SDS011;11357;49.990;7.370;2023-12-07T09:42:23;61.83;;;10.53;;
22378;SDS011;11357;49.990;7.370;2023-12-07T09:44:48;83.83;;;9.00;;
22378;SDS011;11357;49.990;7.370;2023-12-07T09:47:14;146.17;;;12.93;;
22378;SDS011;11357;49.990;7.370;2023-12-07T09:49:40;34.43;;;8.73;;
22378;SDS011;11357;49.990;7.370;2023-12-07T09:52:06;27.07;;;8.83;;
22378;SDS011;11357;49.990;7.370;2023-12-07T09:54:32;56.90;;;10.63;;
22378;SDS011;11357;49.990;7.370;2023-12-07T09:57:00;16.70;;;8.00;;
22378;SDS011;11357;49.990;7.370;2023-12-07T09:59:26;21.80;;;9.70;;
22378;SDS011;11357;49.990;7.370;2023-12-07T10:01:52;22.67;;;9.80;;
22378;SDS011;11357;49.990;7.370;2023-12-07T10:04:21;34.13;;;9.17;;
22378;SDS011;11357;49.990;7.370;2023-12-07T10:06:49;35.47;;;11.33;;
22378;SDS011;11357;49.990;7.370;2023-12-07T10:09:15;16.87;;;9.97;;
22378;SDS011;11357;49.990;7.370;2023-12-07T10:11:41;15.87;;;8.70;;
22378;SDS011;11357;49.990;7.370;2023-12-07T10:14:09;16.93;;;8.13;;
22378;SDS011;11357;49.990;7.370;2023-12-07T10:16:35;33.13;;;10.07;;
22378;SDS011;11357;49.990;7.370;2023-12-07T10:19:34;26.67;;;9.73;;
22378;SDS011;11357;49.990;7.370;2023-12-07T10:21:53;22.30;;;8.60;;
22378;SDS011;11357;49.990;7.370;2023-12-07T10:24:21;18.07;;;9.50;;
22378;SDS011;11357;49.990;7.370;2023-12-07T10:26:47;17.10;;;9.37;;
22378;SDS011;11357;49.990;7.370;2023-12-07T10:29:14;16.70;;;9.23;;
22378;SDS011;11357;49.990;7.370;2023-12-07T10:31:40;21.43;;;8.93;;
22378;SDS011;11357;49.990;7.370;2023-12-07T10:34:05;17.43;;;9.43;;
22378;SDS011;11357;49.990;7.370;2023-12-07T10:36:31;23.37;;;8.77;;
22378;SDS011;11357;49.990;7.370;2023-12-07T10:39:00;17.47;;;9.23;;
22378;SDS011;11357;49.990;7.370;2023-12-07T10:41:26;20.70;;;8.73;;
22378;SDS011;11357;49.990;7.370;2023-12-07T10:43:57;19.30;;;9.70;;
22378;SDS011;11357;49.990;7.370;2023-12-07T10:46:25;18.77;;;9.97;;
22378;SDS011;11357;49.990;7.370;2023-12-07T10:48:54;22.07;;;9.63;;
22378;SDS011;11357;49.990;7.370;2023-12-07T10:54:16;26.77;;;9.70;;
22378;SDS011;11357;49.990;7.370;2023-12-07T10:56:47;33.30;;;10.10;;
22378;SDS011;11357;49.990;7.370;2023-12-07T10:59:14;20.40;;;8.70;;
22378;SDS011;11357;49.990;7.370;2023-12-07T11:01:41;15.87;;;8.60;;
22378;SDS011;11357;49.990;7.370;2023-12-07T11:04:11;16.27;;;8.80;;
22378;SDS011;11357;49.990;7.370;2023-12-07T11:06:42;15.43;;;8.93;;
22378;SDS011;11357;49.990;7.370;2023-12-07T11:09:13;16.17;;;9.37;;
22378;SDS011;11357;49.990;7.370;2023-12-07T11:11:53;20.63;;;9.27;;
22378;SDS011;11357;49.990;7.370;2023-12-07T11:14:24;27.27;;;10.10;;
22378;SDS011;11357;49.990;7.370;2023-12-07T11:16:50;16.90;;;9.13;;
22378;SDS011;11357;49.990;7.370;2023-12-07T11:22:02;15.43;;;8.30;;
22378;SDS011;11357;49.990;7.370;2023-12-07T11:24:31;20.37;;;9.43;;
22378;SDS011;11357;49.990;7.370;2023-12-07T11:26:56;18.40;;;9.43;;
22378;SDS011;11357;49.990;7.370;2023-12-07T11:29:27;17.17;;;9.53;;
22378;SDS011;11357;49.990;7.370;2023-12-07T11:31:59;23.97;;;10.33;;
22378;SDS011;11357;49.990;7.370;2023-12-07T11:37:01;21.50;;;11.20;;
22378;SDS011;11357;49.990;7.370;2023-12-07T11:39:28;26.43;;;11.40;;
22378;SDS011;11357;49.990;7.370;2023-12-07T11:42:05;29.23;;;11.07;;
22378;SDS011;11357;49.990;7.370;2023-12-07T11:44:33;50.47;;;10.63;;
22378;SDS011;11357;49.990;7.370;2023-12-07T11:47:02;20.37;;;10.90;;
22378;SDS011;11357;49.990;7.370;2023-12-07T11:49:28;22.30;;;11.27;;
22378;SDS011;11357;49.990;7.370;2023-12-07T11:51:55;40.33;;;10.63;;
22378;SDS011;11357;49.990;7.370;2023-12-07T11:54:27;23.20;;;9.93;;
22378;SDS011;11357;49.990;7.370;2023-12-07T11:56:56;17.83;;;9.57;;
22378;SDS011;11357;49.990;7.370;2023-12-07T11:59:22;15.60;;;8.70;;
22378;SDS011;11357;49.990;7.370;2023-12-07T12:01:51;29.90;;;9.70;;
22378;SDS011;11357;49.990;7.370;2023-12-07T12:04:17;29.07;;;9.03;;
22378;SDS011;11357;49.990;7.370;2023-12-07T12:06:46;25.50;;;9.30;;
22378;SDS011;11357;49.990;7.370;2023-12-07T12:09:12;17.67;;;8.90;;
22378;SDS011;11357;49.990;7.370;2023-12-07T12:11:46;24.77;;;9.80;;
22378;SDS011;11357;49.990;7.370;2023-12-07T12:14:13;15.70;;;9.23;;
22378;SDS011;11357;49.990;7.370;2023-12-07T12:16:40;21.87;;;10.10;;
22378;SDS011;11357;49.990;7.370;2023-12-07T12:19:06;23.13;;;9.60;;
22378;SDS011;11357;49.990;7.370;2023-12-07T12:21:38;15.20;;;8.83;;
22378;SDS011;11357;49.990;7.370;2023-12-07T12:24:06;14.03;;;8.47;;
22378;SDS011;11357;49.990;7.370;2023-12-07T12:26:34;15.13;;;8.33;;
22378;SDS011;11357;49.990;7.370;2023-12-07T12:29:02;18.63;;;9.60;;
22378;SDS011;11357;49.990;7.370;2023-12-07T12:31:28;22.60;;;9.80;;
22378;SDS011;11357;49.990;7.370;2023-12-07T12:33:54;16.93;;;9.33;;
22378;SDS011;11357;49.990;7.370;2023-12-07T12:36:20;19.47;;;9.87;;
22378;SDS011;11357;49.990;7.370;2023-12-07T12:38:52;16.03;;;9.57;;
22378;SDS011;11357;49.990;7.370;2023-12-07T12:41:21;17.43;;;10.00;;
22378;SDS011;11357;49.990;7.370;2023-12-07T12:43:47;16.87;;;9.00;;
22378;SDS011;11357;49.990;7.370;2023-12-07T12:46:15;16.17;;;8.63;;
22378;SDS011;11357;49.990;7.370;2023-12-07T12:48:57;13.07;;;7.00;;
22378;SDS011;11357;49.990;7.370;2023-12-07T12:51:24;12.37;;;7.73;;
22378;SDS011;11357;49.990;7.370;2023-12-07T12:53:51;12.83;;;7.93;;
22378;SDS011;11357;49.990;7.370;2023-12-07T12:56:18;14.37;;;8.60;;
22378;SDS011;11357;49.990;7.370;2023-12-07T12:58:46;13.43;;;8.33;;
22378;SDS011;11357;49.990;7.370;2023-12-07T13:01:15;17.73;;;8.53;;
22378;SDS011;11357;49.990;7.370;2023-12-07T13:03:43;17.60;;;9.97;;
22378;SDS011;11357;49.990;7.370;2023-12-07T13:06:10;17.03;;;10.10;;
22378;SDS011;11357;49.990;7.370;2023-12-07T13:08:37;16.50;;;9.00;;
22378;SDS011;11357;49.990;7.370;2023-12-07T13:11:02;18.10;;;9.63;;
22378;SDS011;11357;49.990;7.370;2023-12-07T13:13:28;13.77;;;8.43;;
22378;SDS011;11357;49.990;7.370;2023-12-07T13:15:54;16.13;;;8.93;;
22378;SDS011;11357;49.990;7.370;2023-12-07T13:18:20;16.17;;;10.00;;
22378;SDS011;11357;49.990;7.370;2023-12-07T13:20:46;18.17;;;9.87;;
22378;SDS011;11357;49.990;7.370;2023-12-07T13:23:11;14.90;;;9.93;;
22378;SDS011;11357;49.990;7.370;2023-12-07T13:25:37;15.57;;;9.87;;
22378;SDS011;11357;49.990;7.370;2023-12-07T13:28:02;15.90;;;9.30;;
22378;SDS011;11357;49.990;7.370;2023-12-07T13:30:29;18.90;;;11.33;;
22378;SDS011;11357;49.990;7.370;2023-12-07T13:32:58;19.17;;;10.90;;
22378;SDS011;11357;49.990;7.370;2023-12-07T13:35:36;17.03;;;10.20;;
22378;SDS011;11357;49.990;7.370;2023-12-07T13:38:07;16.83;;;9.97;;
22378;SDS011;11357;49.990;7.370;2023-12-07T13:40:33;18.87;;;10.73;;
22378;SDS011;11357;49.990;7.370;2023-12-07T13:43:02;17.50;;;10.53;;
22378;SDS011;11357;49.990;7.370;2023-12-07T13:45:28;20.27;;;10.80;;
22378;SDS011;11357;49.990;7.370;2023-12-07T13:47:53;21.10;;;11.90;;
22378;SDS011;11357;49.990;7.370;2023-12-07T13:50:19;22.40;;;11.23;;
22378;SDS011;11357;49.990;7.370;2023-12-07T13:52:45;20.97;;;10.90;;
22378;SDS011;11357;49.990;7.370;2023-12-07T13:57:46;16.70;;;10.67;;
22378;SDS011;11357;49.990;7.370;2023-12-07T14:00:12;21.23;;;11.43;;
22378;SDS011;11357;49.990;7.370;2023-12-07T14:02:38;24.20;;;12.53;;
22378;SDS011;11357;49.990;7.370;2023-12-07T14:05:04;23.00;;;11.30;;
22378;SDS011;11357;49.990;7.370;2023-12-07T14:07:30;21.23;;;11.90;;
22378;SDS011;11357;49.990;7.370;2023-12-07T14:09:56;18.67;;;11.03;;
22378;SDS011;11357;49.990;7.370;2023-12-07T14:12:21;18.77;;;9.97;;
22378;SDS011;11357;49.990;7.370;2023-12-07T14:14:48;21.10;;;11.03;;
22378;SDS011;11357;49.990;7.370;2023-12-07T14:17:14;17.43;;;10.43;;
22378;SDS011;11357;49.990;7.370;2023-12-07T14:19:41;21.17;;;11.17;;
22378;SDS011;11357;49.990;7.370;2023-12-07T14:22:07;26.00;;;12.23;;
22378;SDS011;11357;49.990;7.370;2023-12-07T14:24:38;27.67;;;13.07;;
22378;SDS011;11357;49.990;7.370;2023-12-07T14:27:19;27.80;;;12.77;;
22378;SDS011;11357;49.990;7.370;2023-12-07T14:29:44;25.73;;;12.47;;
22378;SDS011;11357;49.990;7.370;2023-12-07T14:32:10;23.80;;;11.97;;
22378;SDS011;11357;49.990;7.370;2023-12-07T14:37:11;24.27;;;12.90;;
22378;SDS011;11357;49.990;7.370;2023-12-07T14:39:39;23.90;;;12.63;;
22378;SDS011;11357;49.990;7.370;2023-12-07T14:42:05;22.87;;;13.80;;